createdAt,value
2018-09-06T00:02:00.063Z,14.90
2018-09-06T00:04:28.184Z,14.90
2018-09-06T00:06:56.354Z,14.90
2018-09-06T00:09:24.452Z,14.90
2018-09-06T00:11:52.635Z,14.90
2018-09-06T00:14:20.760Z,15.00
2018-09-06T00:16:48.945Z,15.10
2018-09-06T00:19:17.005Z,15.10
2018-09-06T00:21:45.134Z,15.20
2018-09-06T00:24:13.334Z,15.30
2018-09-06T00:26:41.408Z,15.40
2018-09-06T00:29:09.447Z,15.30
2018-09-06T00:31:37.547Z,15.40
2018-09-06T00:34:05.860Z,15.40
2018-09-06T00:36:34.011Z,15.40
2018-09-06T00:39:02.088Z,15.30
2018-09-06T00:41:30.153Z,15.30
2018-09-06T00:43:58.215Z,15.30
2018-09-06T00:46:26.290Z,15.30
2018-09-06T00:48:54.406Z,15.30
2018-09-06T00:51:22.476Z,15.30
2018-09-06T00:53:50.583Z,15.40
2018-09-06T00:56:18.702Z,15.40
2018-09-06T00:58:46.744Z,15.40
2018-09-06T01:01:14.841Z,15.30
2018-09-06T01:03:42.973Z,15.30
2018-09-06T01:06:11.081Z,15.30
2018-09-06T01:08:39.234Z,15.30
2018-09-06T01:11:07.348Z,15.30
2018-09-06T01:13:35.473Z,15.30
2018-09-06T01:16:03.607Z,15.30
2018-09-06T01:18:31.721Z,15.30
2018-09-06T01:20:59.828Z,15.30
2018-09-06T01:23:27.951Z,15.40
2018-09-06T01:25:56.018Z,15.30
2018-09-06T01:28:24.108Z,15.40
2018-09-06T01:30:52.168Z,15.40
2018-09-06T01:33:20.209Z,15.30
2018-09-06T01:35:53.562Z,15.20
2018-09-06T01:38:21.771Z,15.10
2018-09-06T01:40:49.952Z,15.00
2018-09-06T01:43:18.044Z,15.00
2018-09-06T01:45:46.071Z,14.90
2018-09-06T01:48:14.143Z,14.90
2018-09-06T01:50:42.282Z,14.80
2018-09-06T01:53:10.359Z,14.80
2018-09-06T01:55:38.492Z,14.90
2018-09-06T01:58:06.564Z,14.80
2018-09-06T02:00:34.847Z,14.80
2018-09-06T02:03:02.937Z,14.90
2018-09-06T02:05:35.387Z,14.90
2018-09-06T02:08:04.372Z,14.80
2018-09-06T02:10:32.502Z,14.70
2018-09-06T02:13:00.579Z,14.70
2018-09-06T02:15:28.710Z,14.70
2018-09-06T02:17:56.812Z,14.80
2018-09-06T02:20:24.912Z,14.80
2018-09-06T02:22:52.983Z,14.90
2018-09-06T02:25:21.128Z,14.90
2018-09-06T02:27:49.201Z,14.80
2018-09-06T02:30:17.321Z,14.80
2018-09-06T02:32:45.420Z,14.80
2018-09-06T02:35:13.498Z,14.70
2018-09-06T02:37:41.625Z,14.70
2018-09-06T02:40:13.970Z,14.70
2018-09-06T02:42:42.339Z,14.70
2018-09-06T02:45:10.457Z,14.70
2018-09-06T02:47:42.813Z,14.70
2018-09-06T02:50:16.357Z,14.60
2018-09-06T02:52:44.484Z,14.50
2018-09-06T02:55:12.533Z,14.50
2018-09-06T02:57:40.615Z,14.50
2018-09-06T03:00:08.689Z,14.50
2018-09-06T03:02:36.770Z,14.50
2018-09-06T03:05:04.921Z,14.60
2018-09-06T03:07:33.046Z,14.70
2018-09-06T03:10:01.182Z,14.60
2018-09-06T03:12:29.253Z,14.50
2018-09-06T03:14:57.375Z,14.40
2018-09-06T03:17:26.067Z,14.40
2018-09-06T03:19:54.213Z,14.30
2018-09-06T03:22:22.262Z,14.30
2018-09-06T03:24:50.319Z,14.20
2018-09-06T03:27:18.351Z,14.30
2018-09-06T03:29:46.422Z,14.30
2018-09-06T03:32:14.521Z,14.20
2018-09-06T03:34:42.625Z,14.10
2018-09-06T03:37:10.716Z,14.10
2018-09-06T03:39:38.815Z,14.10
2018-09-06T03:42:06.869Z,14.10
2018-09-06T03:44:34.981Z,14.10
2018-09-06T03:47:03.072Z,14.10
2018-09-06T03:49:31.175Z,14.20
2018-09-06T03:52:00.811Z,14.10
2018-09-06T03:54:28.975Z,14.10
2018-09-06T03:56:57.309Z,14.10
2018-09-06T03:59:25.460Z,14.10
2018-09-06T04:01:53.594Z,14.10
2018-09-06T04:04:21.754Z,14.10
2018-09-06T04:06:49.992Z,13.90
2018-09-06T04:09:18.091Z,13.80
2018-09-06T04:11:46.173Z,13.70
2018-09-06T04:14:14.316Z,13.70
2018-09-06T04:16:42.414Z,13.60
2018-09-06T04:19:10.651Z,13.60
2018-09-06T04:21:39.127Z,13.70
2018-09-06T04:24:07.455Z,13.80
2018-09-06T04:26:35.649Z,14.00
2018-09-06T04:29:03.856Z,14.00
2018-09-06T04:31:32.006Z,14.00
2018-09-06T04:34:00.128Z,14.00
2018-09-06T04:36:28.764Z,14.10
2018-09-06T04:38:56.911Z,14.10
2018-09-06T04:41:25.101Z,14.00
2018-09-06T04:43:53.338Z,14.10
2018-09-06T04:46:21.378Z,14.10
2018-09-06T04:48:49.445Z,14.10
2018-09-06T04:51:17.508Z,14.10
2018-09-06T04:53:45.668Z,14.00
2018-09-06T04:56:13.980Z,14.00
2018-09-06T04:58:42.066Z,14.10
2018-09-06T05:01:10.167Z,14.10
2018-09-06T05:03:38.371Z,14.10
2018-09-06T05:06:06.485Z,14.20
2018-09-06T05:08:34.596Z,14.10
2018-09-06T05:11:02.760Z,14.10
2018-09-06T05:13:30.818Z,14.30
2018-09-06T05:15:58.911Z,14.30
2018-09-06T05:18:27.007Z,14.30
2018-09-06T05:20:55.048Z,14.50
2018-09-06T05:23:23.099Z,14.60
2018-09-06T05:25:51.327Z,14.60
2018-09-06T05:28:19.398Z,14.60
2018-09-06T05:30:47.511Z,14.60
2018-09-06T05:33:15.604Z,14.70
2018-09-06T05:35:43.759Z,14.80
2018-09-06T05:38:12.944Z,15.00
2018-09-06T05:40:41.016Z,15.10
2018-09-06T05:43:09.045Z,15.20
2018-09-06T05:45:37.059Z,15.20
2018-09-06T05:48:05.348Z,15.30
2018-09-06T05:50:33.448Z,15.30
2018-09-06T05:53:02.465Z,15.30
2018-09-06T05:55:31.046Z,15.30
2018-09-06T05:57:59.152Z,15.30
2018-09-06T06:00:32.869Z,15.40
2018-09-06T06:03:03.130Z,15.50
2018-09-06T06:05:31.332Z,15.60
2018-09-06T06:08:11.055Z,15.70
2018-09-06T06:10:39.445Z,15.90
2018-09-06T06:13:07.548Z,15.90
2018-09-06T06:15:35.896Z,15.90
2018-09-06T06:18:04.301Z,16.00
2018-09-06T06:20:32.440Z,16.10
2018-09-06T06:23:00.620Z,16.30
2018-09-06T06:25:28.694Z,16.40
2018-09-06T06:27:57.057Z,16.50
2018-09-06T06:30:25.143Z,16.70
2018-09-06T06:32:53.190Z,16.80
2018-09-06T06:35:21.263Z,17.10
2018-09-06T06:37:49.439Z,17.00
2018-09-06T06:40:17.565Z,17.10
2018-09-06T06:42:45.669Z,17.10
2018-09-06T06:45:13.757Z,17.10
2018-09-06T06:47:41.860Z,17.20
2018-09-06T06:50:10.110Z,17.40
2018-09-06T06:52:38.189Z,17.50
2018-09-06T06:55:06.344Z,17.60
2018-09-06T06:57:34.406Z,17.50
2018-09-06T07:00:02.463Z,17.50
2018-09-06T07:02:30.548Z,17.60
2018-09-06T07:04:58.643Z,17.90
2018-09-06T07:07:26.733Z,18.20
2018-09-06T07:09:54.767Z,18.30
2018-09-06T07:12:22.904Z,18.40
2018-09-06T07:14:51.024Z,18.50
2018-09-06T07:17:19.121Z,18.40
2018-09-06T07:19:47.307Z,18.50
2018-09-06T07:22:15.453Z,18.40
2018-09-06T07:24:43.533Z,18.70
2018-09-06T07:27:12.125Z,18.90
2018-09-06T07:29:40.261Z,19.00
2018-09-06T07:32:08.386Z,19.00
2018-09-06T07:34:36.489Z,18.80
2018-09-06T07:37:04.587Z,18.70
2018-09-06T07:39:32.655Z,18.70
2018-09-06T07:42:00.744Z,18.70
2018-09-06T07:44:28.798Z,19.10
2018-09-06T07:46:56.979Z,19.50
2018-09-06T07:49:25.008Z,19.50
2018-09-06T07:51:53.276Z,19.70
2018-09-06T07:54:21.346Z,19.90
2018-09-06T07:56:49.460Z,20.40
2018-09-06T07:59:17.599Z,20.80
2018-09-06T08:01:45.734Z,21.10
2018-09-06T08:04:13.803Z,21.10
2018-09-06T08:06:41.907Z,21.20
2018-09-06T08:09:11.219Z,21.20
2018-09-06T08:11:39.907Z,21.20
2018-09-06T08:14:07.936Z,21.30
2018-09-06T08:16:36.358Z,21.40
2018-09-06T08:19:04.492Z,21.60
2018-09-06T08:21:32.725Z,21.60
2018-09-06T08:24:01.146Z,21.70
2018-09-06T08:26:29.360Z,21.80
2018-09-06T08:28:57.520Z,22.20
2018-09-06T08:31:25.724Z,22.50
2018-09-06T08:33:53.794Z,22.70
2018-09-06T08:36:22.596Z,23.00
2018-09-06T08:38:50.665Z,23.00
2018-09-06T08:41:18.918Z,24.00
2018-09-06T08:43:47.029Z,25.30
2018-09-06T08:46:15.138Z,26.20
2018-09-06T08:48:43.230Z,26.40
2018-09-06T08:51:11.299Z,26.30
2018-09-06T08:53:39.340Z,26.90
2018-09-06T08:56:07.468Z,27.20
2018-09-06T08:58:35.658Z,27.30
2018-09-06T09:01:09.224Z,27.40
2018-09-06T09:03:37.510Z,27.30
2018-09-06T09:06:05.660Z,28.40
2018-09-06T09:08:33.842Z,29.10
2018-09-06T09:11:01.898Z,29.20
2018-09-06T09:13:29.945Z,28.60
2018-09-06T09:15:58.078Z,28.60
2018-09-06T09:18:26.229Z,28.50
2018-09-06T09:20:54.265Z,29.90
2018-09-06T09:23:22.396Z,30.20
2018-09-06T09:25:50.476Z,29.70
2018-09-06T09:28:18.514Z,30.30
2018-09-06T09:30:46.652Z,30.60
2018-09-06T09:33:14.874Z,30.50
2018-09-06T09:35:43.091Z,30.60
2018-09-06T09:38:11.215Z,30.30
2018-09-06T09:40:39.378Z,31.00
2018-09-06T09:43:07.699Z,31.80
2018-09-06T09:45:35.875Z,30.80
2018-09-06T09:48:04.025Z,31.40
2018-09-06T09:52:59.367Z,31.20
2018-09-06T09:55:27.433Z,32.30
2018-09-06T09:57:55.489Z,31.80
2018-09-06T10:00:29.217Z,30.80
2018-09-06T10:03:02.859Z,31.50
2018-09-06T10:05:36.477Z,32.40
2018-09-06T10:08:08.817Z,31.30
2018-09-06T10:10:36.970Z,31.00
2018-09-06T10:13:05.050Z,31.80
2018-09-06T10:15:33.128Z,32.10
2018-09-06T10:18:01.233Z,32.00
2018-09-06T10:20:29.437Z,31.70
2018-09-06T10:22:57.588Z,31.00
2018-09-06T10:25:25.702Z,32.00
2018-09-06T10:27:53.845Z,32.90
2018-09-06T10:30:22.211Z,31.00
2018-09-06T10:32:50.291Z,31.70
2018-09-06T10:35:18.520Z,31.30
2018-09-06T10:37:46.645Z,31.90
2018-09-06T10:40:14.794Z,31.80
2018-09-06T10:42:43.176Z,31.50
2018-09-06T10:45:11.293Z,30.90
2018-09-06T10:47:39.401Z,32.30
2018-09-06T10:50:07.650Z,31.90
2018-09-06T10:52:35.742Z,32.20
2018-09-06T10:55:04.721Z,31.70
2018-09-06T10:57:32.808Z,32.70
2018-09-06T11:00:01.009Z,32.80
2018-09-06T11:02:29.100Z,33.70
2018-09-06T11:04:57.211Z,32.60
2018-09-06T11:07:25.335Z,32.00
2018-09-06T11:09:53.576Z,32.30
2018-09-06T11:12:21.667Z,32.80
2018-09-06T11:14:49.757Z,33.60
2018-09-06T11:17:17.874Z,34.10
2018-09-06T11:19:45.988Z,33.40
2018-09-06T11:22:14.249Z,33.00
2018-09-06T11:24:42.183Z,32.40
2018-09-06T11:27:10.250Z,32.50
2018-09-06T11:29:38.302Z,33.00
2018-09-06T11:32:06.733Z,32.90
2018-09-06T11:34:34.801Z,31.60
2018-09-06T11:37:02.931Z,31.40
2018-09-06T11:39:31.031Z,31.90
2018-09-06T11:41:59.146Z,32.10
2018-09-06T11:44:27.267Z,32.60
2018-09-06T11:46:55.370Z,32.90
2018-09-06T11:49:23.392Z,32.20
2018-09-06T11:51:51.468Z,32.50
2018-09-06T11:54:19.636Z,32.50
2018-09-06T11:56:47.818Z,33.40
2018-09-06T11:59:15.936Z,33.50
2018-09-06T12:01:44.132Z,33.70
2018-09-06T12:04:12.197Z,33.90
2018-09-06T12:06:40.288Z,32.80
2018-09-06T12:09:08.383Z,33.10
2018-09-06T12:11:36.813Z,33.40
2018-09-06T12:14:05.225Z,32.80
2018-09-06T12:16:33.311Z,32.50
2018-09-06T12:19:01.512Z,32.00
2018-09-06T12:21:29.590Z,32.60
2018-09-06T12:23:57.901Z,33.00
2018-09-06T12:26:26.041Z,32.60
2018-09-06T12:28:54.125Z,33.60
2018-09-06T12:31:22.201Z,33.50
2018-09-06T12:33:50.339Z,33.10
2018-09-06T12:36:18.383Z,32.50
2018-09-06T12:38:46.592Z,33.40
2018-09-06T12:41:14.741Z,33.70
2018-09-06T12:43:43.076Z,32.50
2018-09-06T12:46:11.160Z,32.60
2018-09-06T12:48:39.307Z,32.40
2018-09-06T12:51:07.380Z,31.60
2018-09-06T12:53:35.484Z,32.20
2018-09-06T12:56:03.673Z,32.40
2018-09-06T12:58:31.815Z,32.60
2018-09-06T13:00:59.908Z,32.30
2018-09-06T13:03:27.956Z,31.80
2018-09-06T13:05:56.020Z,32.30
2018-09-06T13:08:24.166Z,32.60
2018-09-06T13:10:52.263Z,32.50
2018-09-06T13:13:20.310Z,32.60
2018-09-06T13:15:48.363Z,33.00
2018-09-06T13:18:16.516Z,33.40
2018-09-06T13:20:44.608Z,32.80
2018-09-06T13:23:12.711Z,33.00
2018-09-06T13:25:40.919Z,33.20
2018-09-06T13:28:09.267Z,33.20
2018-09-06T13:30:37.351Z,32.80
2018-09-06T13:33:05.808Z,33.00
2018-09-06T13:35:33.895Z,32.60
2018-09-06T13:38:01.957Z,31.70
2018-09-06T13:40:30.067Z,32.00
2018-09-06T13:42:58.648Z,32.70
2018-09-06T13:45:27.240Z,32.10
2018-09-06T13:47:55.307Z,32.60
2018-09-06T13:50:23.517Z,32.60
2018-09-06T13:52:51.667Z,33.00
2018-09-06T13:55:19.739Z,32.40
2018-09-06T13:57:47.962Z,31.50
2018-09-06T14:00:16.120Z,31.50
2018-09-06T14:02:44.259Z,30.90
2018-09-06T14:05:12.524Z,31.80
2018-09-06T14:07:40.636Z,31.50
2018-09-06T14:10:08.791Z,31.30
2018-09-06T14:12:37.008Z,30.90
2018-09-06T14:15:05.118Z,30.70
2018-09-06T14:17:33.346Z,30.30
2018-09-06T14:20:01.509Z,30.20
2018-09-06T14:22:29.633Z,30.20
2018-09-06T14:24:57.740Z,30.10
2018-09-06T14:27:25.984Z,29.80
2018-09-06T14:29:54.072Z,30.20
2018-09-06T14:32:22.251Z,30.50
2018-09-06T14:34:50.465Z,29.90
2018-09-06T14:37:18.586Z,29.40
2018-09-06T14:39:46.933Z,29.00
2018-09-06T14:42:15.077Z,28.90
2018-09-06T14:44:43.217Z,28.80
2018-09-06T14:47:11.279Z,28.90
2018-09-06T14:49:39.392Z,29.00
2018-09-06T14:52:07.614Z,29.60
2018-09-06T14:54:35.672Z,30.10
2018-09-06T14:57:03.782Z,30.20
2018-09-06T14:59:31.904Z,29.40
2018-09-06T15:01:59.999Z,29.60
2018-09-06T15:04:28.203Z,30.00
2018-09-06T15:06:56.411Z,30.20
2018-09-06T15:09:24.616Z,29.70
2018-09-06T15:11:52.845Z,29.20
2018-09-06T15:14:21.177Z,28.70
2018-09-06T15:16:49.354Z,28.70
2018-09-06T15:19:17.611Z,28.90
2018-09-06T15:21:45.765Z,28.80
2018-09-06T15:24:14.860Z,29.00
2018-09-06T15:26:43.172Z,29.10
2018-09-06T15:29:11.463Z,29.00
2018-09-06T15:31:39.702Z,29.20
2018-09-06T15:34:07.908Z,29.40
2018-09-06T15:36:36.121Z,29.50
2018-09-06T15:39:05.671Z,29.40
2018-09-06T15:41:34.724Z,29.80
2018-09-06T15:44:02.906Z,29.70
2018-09-06T15:46:31.070Z,28.90
2018-09-06T15:48:59.405Z,28.90
2018-09-06T15:51:27.533Z,29.20
2018-09-06T15:53:55.969Z,29.00
2018-09-06T15:56:24.134Z,28.90
2018-09-06T15:58:52.324Z,28.70
2018-09-06T16:01:20.593Z,28.40
2018-09-06T16:03:48.805Z,28.20
2018-09-06T16:06:16.861Z,28.10
2018-09-06T16:08:44.976Z,27.80
2018-09-06T16:11:13.153Z,27.60
2018-09-06T16:13:41.345Z,27.40
2018-09-06T16:16:09.512Z,27.10
2018-09-06T16:18:37.680Z,27.00
2018-09-06T16:21:05.972Z,26.70
2018-09-06T16:23:34.283Z,26.60
2018-09-06T16:26:02.513Z,26.50
2018-09-06T16:28:30.629Z,26.70
2018-09-06T16:30:59.596Z,26.80
2018-09-06T16:33:27.688Z,26.80
2018-09-06T16:35:55.784Z,26.80
2018-09-06T16:38:23.934Z,26.70
2018-09-06T16:40:52.249Z,26.70
2018-09-06T16:43:20.592Z,26.60
2018-09-06T16:45:48.697Z,26.60
2018-09-06T16:48:17.581Z,26.70
2018-09-06T16:50:45.692Z,26.70
2018-09-06T16:53:14.888Z,26.50
2018-09-06T16:55:43.028Z,26.50
2018-09-06T16:58:11.160Z,26.30
2018-09-06T17:00:39.240Z,26.20
2018-09-06T17:03:07.384Z,26.20
2018-09-06T17:05:35.587Z,25.90
2018-09-06T17:08:03.776Z,25.90
2018-09-06T17:10:31.888Z,25.90
2018-09-06T17:12:59.960Z,25.60
2018-09-06T17:15:28.040Z,25.30
2018-09-06T17:17:56.156Z,25.10
2018-09-06T17:20:24.368Z,24.90
2018-09-06T17:22:52.506Z,24.80
2018-09-06T17:25:20.705Z,24.70
2018-09-06T17:27:49.006Z,24.60
2018-09-06T17:30:17.238Z,24.60
2018-09-06T17:32:45.409Z,24.50
2018-09-06T17:35:13.568Z,24.40
2018-09-06T17:37:42.583Z,24.40
2018-09-06T17:40:10.793Z,24.20
2018-09-06T17:42:39.104Z,24.10
2018-09-06T17:45:07.298Z,23.90
2018-09-06T17:47:35.399Z,23.80
2018-09-06T17:50:03.529Z,23.70
2018-09-06T17:52:31.679Z,23.50
2018-09-06T17:54:59.852Z,23.50
2018-09-06T17:57:28.016Z,23.40
2018-09-06T17:59:56.265Z,23.20
2018-09-06T18:02:24.443Z,23.10
2018-09-06T18:04:52.532Z,22.90
2018-09-06T18:07:20.797Z,22.90
2018-09-06T18:09:49.058Z,22.80
2018-09-06T18:12:17.386Z,22.60
2018-09-06T18:14:45.574Z,22.50
2018-09-06T18:17:13.699Z,22.50
2018-09-06T18:19:41.979Z,22.40
2018-09-06T18:22:10.350Z,22.40
2018-09-06T18:24:38.522Z,22.30
2018-09-06T18:27:06.583Z,22.20
2018-09-06T18:29:34.736Z,22.10
2018-09-06T18:32:03.248Z,22.00
2018-09-06T18:34:31.447Z,22.10
2018-09-06T18:37:00.091Z,22.10
2018-09-06T18:39:28.207Z,22.10
2018-09-06T18:41:56.367Z,22.10
2018-09-06T18:44:24.404Z,22.10
2018-09-06T18:46:52.564Z,22.00
2018-09-06T18:49:20.716Z,21.90
2018-09-06T18:51:48.785Z,21.80
2018-09-06T18:54:16.900Z,21.70
2018-09-06T18:56:45.001Z,21.60
2018-09-06T18:59:13.210Z,21.50
2018-09-06T19:01:41.329Z,21.50
2018-09-06T19:04:09.466Z,21.50
2018-09-06T19:06:37.623Z,21.50
2018-09-06T19:09:08.514Z,21.50
2018-09-06T19:11:36.619Z,21.40
2018-09-06T19:14:05.136Z,21.30
2018-09-06T19:16:33.401Z,21.30
2018-09-06T19:19:02.603Z,21.20
2018-09-06T19:21:30.777Z,21.20
2018-09-06T19:23:58.959Z,21.10
2018-09-06T19:26:27.301Z,21.00
2018-09-06T19:28:55.409Z,20.90
2018-09-06T19:31:23.501Z,20.90
2018-09-06T19:33:51.786Z,20.90
2018-09-06T19:36:19.937Z,20.80
2018-09-06T19:38:48.213Z,20.70
2018-09-06T19:41:16.289Z,20.70
2018-09-06T19:43:44.571Z,20.80
2018-09-06T19:46:12.640Z,20.70
2018-09-06T19:48:40.724Z,20.70
2018-09-06T19:51:08.900Z,20.60
2018-09-06T19:53:36.960Z,20.50
2018-09-06T19:56:05.097Z,20.50
2018-09-06T19:58:33.190Z,20.40
2018-09-06T20:01:01.261Z,20.20
2018-09-06T20:03:29.397Z,20.10
2018-09-06T20:05:57.497Z,20.10
2018-09-06T20:08:25.539Z,20.10
2018-09-06T20:10:53.677Z,20.00
2018-09-06T20:13:21.802Z,20.00
2018-09-06T20:15:49.860Z,20.00
2018-09-06T20:18:17.932Z,19.90
2018-09-06T20:20:46.079Z,19.90
2018-09-06T20:23:14.188Z,19.80
2018-09-06T20:25:42.319Z,19.80
2018-09-06T20:28:10.619Z,19.70
2018-09-06T20:30:38.612Z,19.70
2018-09-06T20:33:06.714Z,19.60
2018-09-06T20:35:34.923Z,19.60
2018-09-06T20:38:03.025Z,19.60
2018-09-06T20:40:31.120Z,19.50
2018-09-06T20:42:59.250Z,19.50
2018-09-06T20:45:27.360Z,19.40
2018-09-06T20:47:55.490Z,19.40
2018-09-06T20:50:23.658Z,19.30
2018-09-06T20:52:51.683Z,19.30
2018-09-06T20:55:19.809Z,19.20
2018-09-06T20:57:48.136Z,19.20
2018-09-06T21:00:16.270Z,19.20
2018-09-06T21:02:44.319Z,19.10
2018-09-06T21:05:12.477Z,19.10
2018-09-06T21:07:40.649Z,19.00
2018-09-06T21:10:08.886Z,19.00
2018-09-06T21:12:36.964Z,19.00
2018-09-06T21:15:05.080Z,19.00
2018-09-06T21:17:33.151Z,19.00
2018-09-06T21:20:01.228Z,18.90
2018-09-06T21:22:29.374Z,18.90
2018-09-06T21:24:57.562Z,18.90
2018-09-06T21:27:25.629Z,18.90
2018-09-06T21:29:53.796Z,18.90
2018-09-06T21:32:21.855Z,18.80
2018-09-06T21:34:49.984Z,18.80
2018-09-06T21:37:18.038Z,18.70
2018-09-06T21:39:46.298Z,18.70
2018-09-06T21:42:14.408Z,18.60
2018-09-06T21:44:42.640Z,18.60
2018-09-06T21:47:10.788Z,18.60
2018-09-06T21:49:38.879Z,18.60
2018-09-06T21:52:07.003Z,18.60
2018-09-06T21:54:35.080Z,18.60
2018-09-06T21:57:03.228Z,18.60
2018-09-06T21:59:31.321Z,18.60
2018-09-06T22:01:59.389Z,18.70
2018-09-06T22:04:27.457Z,18.70
2018-09-06T22:06:55.573Z,18.70
2018-09-06T22:09:23.726Z,18.60
2018-09-06T22:11:51.828Z,18.60
2018-09-06T22:14:19.987Z,18.60
2018-09-06T22:16:48.159Z,18.60
2018-09-06T22:19:18.065Z,18.50
2018-09-06T22:21:46.713Z,18.50
2018-09-06T22:24:14.887Z,18.50
2018-09-06T22:26:43.032Z,18.40
2018-09-06T22:29:11.108Z,18.30
2018-09-06T22:31:39.224Z,18.30
2018-09-06T22:34:07.346Z,18.30
2018-09-06T22:36:35.404Z,18.20
2018-09-06T22:39:03.820Z,18.20
2018-09-06T22:41:31.895Z,18.30
2018-09-06T22:43:59.996Z,18.30
2018-09-06T22:46:28.094Z,18.30
2018-09-06T22:48:56.217Z,18.30
2018-09-06T22:51:24.246Z,18.30
2018-09-06T22:53:52.387Z,18.30
2018-09-06T22:56:20.517Z,18.30
2018-09-06T22:58:48.593Z,18.30
2018-09-06T23:01:16.676Z,18.20
2018-09-06T23:03:49.072Z,18.20
2018-09-06T23:06:17.269Z,18.20
2018-09-06T23:08:45.357Z,18.20
2018-09-06T23:11:13.447Z,18.20
2018-09-06T23:13:41.550Z,18.20
2018-09-06T23:16:09.717Z,18.20
2018-09-06T23:18:37.807Z,18.20
2018-09-06T23:21:05.965Z,18.20
2018-09-06T23:23:34.156Z,18.10
2018-09-06T23:26:02.598Z,18.10
2018-09-06T23:28:30.852Z,18.10
2018-09-06T23:30:58.937Z,18.20
2018-09-06T23:33:27.061Z,18.10
2018-09-06T23:35:55.164Z,18.20
2018-09-06T23:38:23.287Z,18.10
2018-09-06T23:40:53.331Z,18.10
2018-09-06T23:43:22.320Z,18.00
2018-09-06T23:45:52.520Z,18.00
2018-09-06T23:48:22.568Z,18.10
2018-09-06T23:50:50.661Z,18.00
2018-09-06T23:53:18.746Z,18.00
2018-09-06T23:55:46.860Z,18.00
2018-09-06T23:58:14.896Z,18.00
